createdAt,value
2016-05-11T00:00:25.606Z,24.48
2016-05-11T00:01:25.248Z,24.45
2016-05-11T00:02:25.298Z,24.47
2016-05-11T00:03:25.379Z,24.48
2016-05-11T00:04:25.413Z,24.45
2016-05-11T00:05:25.306Z,24.4
2016-05-11T00:06:25.528Z,24.42
2016-05-11T00:07:25.593Z,24.45
2016-05-11T00:08:25.472Z,24.5
2016-05-11T00:09:25.677Z,24.45
2016-05-11T00:10:25.741Z,24.5
2016-05-11T00:11:25.792Z,24.5
2016-05-11T00:12:25.872Z,24.45
2016-05-11T00:13:25.890Z,24.47
2016-05-11T00:14:25.972Z,24.43
2016-05-11T00:15:26.365Z,24.4
2016-05-11T00:16:26.071Z,24.48
2016-05-11T00:17:26.135Z,24.5
2016-05-11T00:18:26.263Z,24.5
2016-05-11T00:19:26.079Z,24.45
2016-05-11T00:20:26.299Z,24.42
2016-05-11T00:21:26.349Z,24.47
2016-05-11T00:22:26.227Z,24.5
2016-05-11T00:23:26.464Z,24.53
2016-05-11T00:24:26.499Z,24.43
2016-05-11T00:25:26.579Z,24.53
2016-05-11T00:26:26.660Z,24.48
2016-05-11T00:27:26.679Z,24.4
2016-05-11T00:28:26.743Z,24.43
2016-05-11T00:29:26.809Z,24.5
2016-05-11T00:30:27.092Z,24.48
2016-05-11T00:31:26.892Z,24.48
2016-05-11T00:32:26.973Z,24.48
2016-05-11T00:33:27.007Z,24.42
2016-05-11T00:34:27.056Z,24.48
2016-05-11T00:35:27.122Z,24.48
2016-05-11T00:36:27.156Z,24.53
2016-05-11T00:37:27.220Z,24.45
2016-05-11T00:38:27.270Z,24.47
2016-05-11T00:39:27.351Z,24.5
2016-05-11T00:40:27.400Z,24.51
2016-05-11T00:41:27.466Z,24.43
2016-05-11T00:42:27.499Z,24.42
2016-05-11T00:43:27.566Z,24.48
2016-05-11T00:44:27.614Z,24.48
2016-05-11T00:45:27.633Z,24.48
2016-05-11T00:46:27.730Z,24.5
2016-05-11T00:47:27.779Z,24.5
2016-05-11T00:48:27.813Z,24.45
2016-05-11T00:49:27.863Z,24.42
2016-05-11T00:50:27.943Z,24.55
2016-05-11T00:51:27.993Z,24.48
2016-05-11T00:52:27.901Z,24.5
2016-05-11T00:53:28.092Z,24.42
2016-05-11T00:54:28.157Z,24.42
2016-05-11T00:55:28.223Z,24.42
2016-05-11T00:56:28.271Z,24.42
2016-05-11T00:57:28.306Z,24.48
2016-05-11T00:58:28.402Z,24.45
2016-05-11T00:59:28.279Z,24.48
2016-05-11T01:00:28.501Z,24.43
2016-05-11T01:01:28.238Z,24.43
2016-05-11T01:02:28.600Z,24.5
2016-05-11T01:03:28.665Z,24.47
2016-05-11T01:04:28.715Z,24.32
2016-05-11T01:05:28.781Z,24.38
2016-05-11T01:06:28.830Z,24.43
2016-05-11T01:07:28.880Z,24.45
2016-05-11T01:08:28.788Z,24.45
2016-05-11T01:09:28.994Z,24.39
2016-05-11T01:10:29.028Z,24.36
2016-05-11T01:11:29.094Z,24.4
2016-05-11T01:12:29.144Z,24.32
2016-05-11T01:13:29.208Z,24.35
2016-05-11T01:14:29.102Z,24.4
2016-05-11T01:15:29.166Z,24.32
2016-05-11T01:16:29.217Z,24.39
2016-05-11T01:17:29.421Z,24.38
2016-05-11T01:18:29.330Z,24.5
2016-05-11T01:19:29.537Z,24.47
2016-05-11T01:20:29.586Z,24.35
2016-05-11T01:21:29.636Z,24.47
2016-05-11T01:22:29.685Z,24.33
2016-05-11T01:23:29.782Z,24.36
2016-05-11T01:24:29.784Z,24.33
2016-05-11T01:25:29.866Z,24.47
2016-05-11T01:26:29.931Z,24.43
2016-05-11T01:27:29.965Z,24.45
2016-05-11T01:28:30.030Z,24.43
2016-05-11T01:29:29.954Z,24.33
2016-05-11T01:30:30.144Z,24.45
2016-05-11T01:31:30.194Z,24.42
2016-05-11T01:32:30.260Z,24.43
2016-05-11T01:33:30.309Z,24.35
2016-05-11T01:34:30.187Z,24.42
2016-05-11T01:35:30.408Z,24.42
2016-05-11T01:36:30.473Z,24.42
2016-05-11T01:37:30.506Z,24.39
2016-05-11T01:38:30.573Z,24.5
2016-05-11T01:39:30.481Z,24.42
2016-05-11T01:40:30.686Z,24.39
2016-05-11T01:41:30.737Z,24.38
2016-05-11T01:42:30.786Z,24.4
2016-05-11T01:43:30.852Z,24.4
2016-05-11T01:44:30.901Z,24.32
2016-05-11T01:45:31.075Z,24.36
2016-05-11T01:46:30.999Z,24.42
2016-05-11T01:47:31.065Z,24.38
2016-05-11T01:48:31.116Z,24.36
2016-05-11T01:49:31.164Z,24.35
2016-05-11T01:50:31.246Z,24.38
2016-05-11T01:51:31.279Z,24.4
2016-05-11T01:52:31.344Z,24.45
2016-05-11T01:53:31.410Z,24.47
2016-05-11T01:54:31.302Z,24.43
2016-05-11T01:55:31.524Z,24.35
2016-05-11T01:56:31.590Z,24.38
2016-05-11T01:57:31.624Z,24.43
2016-05-11T01:58:31.532Z,24.38
2016-05-11T01:59:31.738Z,24.47
2016-05-11T02:00:31.787Z,24.35
2016-05-11T02:01:31.837Z,24.38
2016-05-11T02:02:31.902Z,24.39
2016-05-11T02:03:31.781Z,24.4
2016-05-11T02:04:31.830Z,24.38
2016-05-11T02:05:32.067Z,24.36
2016-05-11T02:06:32.116Z,24.39
2016-05-11T02:07:32.166Z,24.39
2016-05-11T02:08:32.075Z,24.38
2016-05-11T02:09:32.124Z,24.38
2016-05-11T02:10:32.345Z,24.36
2016-05-11T02:11:32.395Z,24.42
2016-05-11T02:12:32.289Z,24.38
2016-05-11T02:13:32.353Z,24.36
2016-05-11T02:14:32.560Z,24.32
2016-05-11T02:15:32.609Z,24.39
2016-05-11T02:16:32.659Z,24.33
2016-05-11T02:17:32.708Z,24.35
2016-05-11T02:18:32.774Z,24.35
2016-05-11T02:19:32.839Z,24.35
2016-05-11T02:20:32.716Z,24.36
2016-05-11T02:21:32.938Z,24.39
2016-05-11T02:22:32.847Z,24.33
2016-05-11T02:23:32.880Z,24.33
2016-05-11T02:24:33.118Z,24.33
2016-05-11T02:25:33.167Z,24.33
2016-05-11T02:26:33.201Z,24.32
2016-05-11T02:27:33.266Z,24.36
2016-05-11T02:28:33.348Z,24.3
2016-05-11T02:29:33.365Z,24.29
2016-05-11T02:30:33.306Z,24.33
2016-05-11T02:31:33.496Z,24.33
2016-05-11T02:32:33.593Z,24.33
2016-05-11T02:33:33.595Z,24.33
2016-05-11T02:34:33.489Z,24.3
2016-05-11T02:35:33.725Z,24.32
2016-05-11T02:36:33.619Z,24.33
2016-05-11T02:37:33.653Z,24.28
2016-05-11T02:38:33.890Z,24.29
2016-05-11T02:39:33.940Z,24.3
2016-05-11T02:40:33.989Z,24.35
2016-05-11T02:41:34.054Z,24.35
2016-05-11T02:42:33.963Z,24.33
2016-05-11T02:43:34.153Z,24.29
2016-05-11T02:44:34.218Z,24.35
2016-05-11T02:45:34.425Z,24.29
2016-05-11T02:46:34.317Z,24.29
2016-05-11T02:47:34.383Z,24.28
2016-05-11T02:48:34.261Z,24.33
2016-05-11T02:49:34.325Z,24.29
2016-05-11T02:50:34.547Z,24.35
2016-05-11T02:51:34.581Z,24.28
2016-05-11T02:52:34.474Z,24.29
2016-05-11T02:53:34.571Z,24.28
2016-05-11T02:54:34.761Z,24.35
2016-05-11T02:55:34.810Z,24.33
2016-05-11T02:56:34.876Z,24.32
2016-05-11T02:57:34.940Z,24.28
2016-05-11T02:58:34.975Z,24.32
2016-05-11T02:59:35.041Z,24.28
2016-05-11T03:00:35.355Z,24.28
2016-05-11T03:01:35.123Z,24.3
2016-05-11T03:02:35.048Z,24.3
2016-05-11T03:03:35.253Z,24.32
2016-05-11T03:04:35.303Z,24.3
2016-05-11T03:05:35.073Z,24.35
2016-05-11T03:06:35.262Z,24.33
2016-05-11T03:07:35.468Z,24.29
2016-05-11T03:08:35.376Z,24.38
2016-05-11T03:09:35.583Z,24.29
2016-05-11T03:10:35.631Z,24.35
2016-05-11T03:11:35.556Z,24.35
2016-05-11T03:12:35.747Z,24.33
2016-05-11T03:13:35.828Z,24.3
2016-05-11T03:14:35.689Z,24.29
2016-05-11T03:15:35.911Z,24.33
2016-05-11T03:16:35.961Z,24.28
2016-05-11T03:17:36.073Z,24.26
2016-05-11T03:18:35.919Z,24.29
2016-05-11T03:19:36.125Z,24.3
2016-05-11T03:20:36.033Z,24.35
2016-05-11T03:21:36.255Z,24.26
2016-05-11T03:22:36.289Z,24.32
2016-05-11T03:23:36.354Z,24.32
2016-05-11T03:24:36.233Z,24.3
2016-05-11T03:25:36.469Z,24.28
2016-05-11T03:26:36.519Z,24.26
2016-05-11T03:27:36.553Z,24.26
2016-05-11T03:28:36.477Z,24.33
2016-05-11T03:29:36.682Z,24.33
2016-05-11T03:30:36.755Z,24.28
2016-05-11T03:31:36.688Z,24.28
2016-05-11T03:32:36.948Z,24.23
2016-05-11T03:33:37.023Z,24.26
2016-05-11T03:34:37.143Z,24.32
2016-05-11T03:35:36.899Z,24.33
2016-05-11T03:36:37.291Z,24.28
2016-05-11T03:37:37.340Z,24.24
2016-05-11T03:38:37.404Z,24.32
2016-05-11T03:39:37.483Z,24.28
2016-05-11T03:40:37.561Z,24.26
2016-05-11T03:41:37.600Z,24.3
2016-05-11T03:42:37.529Z,24.3
2016-05-11T03:43:37.584Z,24.28
2016-05-11T03:44:37.779Z,24.32
2016-05-11T03:45:38.208Z,24.29
2016-05-11T03:46:37.963Z,24.24
2016-05-11T03:47:37.951Z,24.32
2016-05-11T03:48:37.877Z,24.26
2016-05-11T03:49:38.070Z,24.24
2016-05-11T03:50:38.137Z,24.17
2016-05-11T03:51:38.030Z,24.16
2016-05-11T03:52:38.253Z,24.24
2016-05-11T03:53:38.302Z,24.24
2016-05-11T03:54:38.196Z,24.3
2016-05-11T03:55:38.449Z,24.21
2016-05-11T03:56:38.483Z,24.28
2016-05-11T03:57:38.518Z,24.28
2016-05-11T03:58:38.427Z,24.23
2016-05-11T03:59:38.649Z,24.18
2016-05-11T04:00:38.449Z,24.24
2016-05-11T04:01:38.733Z,24.18
2016-05-11T04:02:38.642Z,24.21
2016-05-11T04:03:38.692Z,24.23
2016-05-11T04:04:38.897Z,24.21
2016-05-11T04:05:38.946Z,24.23
2016-05-11T04:06:38.871Z,24.23
2016-05-11T04:07:38.906Z,24.2
2016-05-11T04:08:39.127Z,24.2
2016-05-11T04:09:39.177Z,24.18
2016-05-11T04:10:39.257Z,24.24
2016-05-11T04:11:39.274Z,24.21
2016-05-11T04:12:39.371Z,24.24
2016-05-11T04:13:39.406Z,24.23
2016-05-11T04:14:39.440Z,24.24
2016-05-11T04:15:39.364Z,24.28
2016-05-11T04:16:39.585Z,24.29
2016-05-11T04:17:39.635Z,24.24
2016-05-11T04:18:39.669Z,24.28
2016-05-11T04:19:39.734Z,24.18
2016-05-11T04:20:39.799Z,24.18
2016-05-11T04:21:39.849Z,24.17
2016-05-11T04:22:39.882Z,24.2
2016-05-11T04:23:39.948Z,24.16
2016-05-11T04:24:39.998Z,24.21
2016-05-11T04:25:39.891Z,24.2
2016-05-11T04:26:40.098Z,24.2
2016-05-11T04:27:40.178Z,24.24
2016-05-11T04:28:40.071Z,24.2
2016-05-11T04:29:40.120Z,24.28
2016-05-11T04:30:40.342Z,24.28
2016-05-11T04:31:40.391Z,24.23
2016-05-11T04:32:40.457Z,24.23
2016-05-11T04:33:40.506Z,24.21
2016-05-11T04:34:40.586Z,24.17
2016-05-11T04:35:40.636Z,24.21
2016-05-11T04:36:40.686Z,24.2
2016-05-11T04:37:40.704Z,24.3
2016-05-11T04:38:40.770Z,24.33
2016-05-11T04:39:40.819Z,24.26
2016-05-11T04:40:40.869Z,24.3
2016-05-11T04:41:40.966Z,24.29
2016-05-11T04:42:40.999Z,24.29
2016-05-11T04:43:41.064Z,24.29
2016-05-11T04:44:41.099Z,24.28
2016-05-11T04:45:41.163Z,24.28
2016-05-11T04:46:41.041Z,24.35
2016-05-11T04:47:41.107Z,24.36
2016-05-11T04:48:41.312Z,24.3
2016-05-11T04:49:41.346Z,24.33
2016-05-11T04:50:41.412Z,24.35
2016-05-11T04:51:41.320Z,24.35
2016-05-11T04:52:41.526Z,24.29
2016-05-11T04:53:41.435Z,24.29
2016-05-11T04:54:41.656Z,24.29
2016-05-11T04:55:41.691Z,24.33
2016-05-11T04:56:41.770Z,24.32
2016-05-11T04:57:41.806Z,24.32
2016-05-11T04:58:41.698Z,24.33
2016-05-11T04:59:41.920Z,24.33
2016-05-11T05:00:42.000Z,24.33
2016-05-11T05:01:42.035Z,24.33
2016-05-11T05:02:42.084Z,24.35
2016-05-11T05:03:41.993Z,24.38
2016-05-11T05:04:42.184Z,24.32
2016-05-11T05:05:42.092Z,24.33
2016-05-11T05:06:42.314Z,24.33
2016-05-11T05:07:42.363Z,24.33
2016-05-11T05:08:42.428Z,24.43
2016-05-11T05:09:42.306Z,24.36
2016-05-11T05:10:42.372Z,24.35
2016-05-11T05:11:42.593Z,24.33
2016-05-11T05:12:42.627Z,24.42
2016-05-11T05:13:42.677Z,24.36
2016-05-11T05:14:42.585Z,24.4
2016-05-11T05:15:43.275Z,24.33
2016-05-11T05:16:42.888Z,24.3
2016-05-11T05:17:42.921Z,24.39
2016-05-11T05:18:42.971Z,24.38
2016-05-11T05:19:43.036Z,24.36
2016-05-11T05:20:43.101Z,24.39
2016-05-11T05:21:43.151Z,24.35
2016-05-11T05:22:43.201Z,24.36
2016-05-11T05:23:43.109Z,24.4
2016-05-11T05:24:43.300Z,24.33
2016-05-11T05:25:43.411Z,24.43
2016-05-11T05:26:43.243Z,24.36
2016-05-11T05:27:43.292Z,24.38
2016-05-11T05:28:43.514Z,24.42
2016-05-11T05:29:43.547Z,24.4
2016-05-11T05:30:43.629Z,24.39
2016-05-11T05:31:43.678Z,24.4
2016-05-11T05:32:43.728Z,24.36
2016-05-11T05:33:43.793Z,24.45
2016-05-11T05:34:43.842Z,24.45
2016-05-11T05:35:43.892Z,24.4
2016-05-11T05:36:43.972Z,24.33
2016-05-11T05:37:43.850Z,24.35
2016-05-11T05:38:44.056Z,24.32
2016-05-11T05:39:44.122Z,24.38
2016-05-11T05:40:44.186Z,24.32
2016-05-11T05:41:44.220Z,24.32
2016-05-11T05:42:44.286Z,24.3
2016-05-11T05:43:44.335Z,24.32
2016-05-11T05:44:44.228Z,24.21
2016-05-11T05:45:44.810Z,24.21
2016-05-11T05:46:44.483Z,24.14
2016-05-11T05:47:44.549Z,24.08
2016-05-11T05:48:44.614Z,24.13
2016-05-11T05:49:44.649Z,24.17
2016-05-11T05:50:44.729Z,24.01
2016-05-11T05:51:44.779Z,24.05
2016-05-11T05:52:44.828Z,23.98
2016-05-11T05:53:44.893Z,23.96
2016-05-11T05:54:44.943Z,24.02
2016-05-11T05:55:44.992Z,24.01
2016-05-11T05:56:45.057Z,24.03
2016-05-11T05:57:45.092Z,24.02
2016-05-11T05:58:45.156Z,24.03
2016-05-11T05:59:45.206Z,24.05
2016-05-11T06:00:45.115Z,24.06
2016-05-11T06:01:45.336Z,24.05
2016-05-11T06:02:45.387Z,24.08
2016-05-11T06:03:45.279Z,24.02
2016-05-11T06:04:45.486Z,24.02
2016-05-11T06:05:45.550Z,24.1
2016-05-11T06:06:45.584Z,24.05
2016-05-11T06:07:45.665Z,24.02
2016-05-11T06:08:45.714Z,24.01
2016-05-11T06:09:45.734Z,24.01
2016-05-11T06:10:45.814Z,24.06
2016-05-11T06:11:45.863Z,23.96
2016-05-11T06:12:45.914Z,24.01
2016-05-11T06:13:45.978Z,24.02
2016-05-11T06:14:46.028Z,23.99
2016-05-11T06:15:45.936Z,23.99
2016-05-11T06:16:46.330Z,23.92
2016-05-11T06:17:46.208Z,23.93
2016-05-11T06:18:46.241Z,23.92
2016-05-11T06:19:48.792Z,23.93
2016-05-11T06:20:50.137Z,23.96
2016-05-11T06:22:00.671Z,23.99
2016-05-11T06:22:48.363Z,23.96
2016-05-11T06:23:55.099Z,24.05
2016-05-11T06:24:48.601Z,23.93
2016-05-11T06:25:49.479Z,23.95
2016-05-11T06:26:51.279Z,23.96
2016-05-11T06:27:47.563Z,23.91
2016-05-11T06:28:47.847Z,23.98
2016-05-11T06:29:46.865Z,24.01
2016-05-11T06:30:47.181Z,23.88
2016-05-11T06:31:46.948Z,24.02
2016-05-11T06:32:46.858Z,23.92
2016-05-11T06:33:46.892Z,23.88
2016-05-11T06:34:46.942Z,23.96
2016-05-11T06:35:47.179Z,23.92
2016-05-11T06:36:47.212Z,23.92
2016-05-11T06:37:47.293Z,23.88
2016-05-11T06:38:47.342Z,24.01
2016-05-11T06:39:47.376Z,23.87
2016-05-11T06:40:47.458Z,23.99
2016-05-11T06:41:47.522Z,23.92
2016-05-11T06:42:47.572Z,24.01
2016-05-11T06:43:47.621Z,24.01
2016-05-11T06:44:47.718Z,23.91
2016-05-11T06:45:47.565Z,24.01
2016-05-11T06:46:47.786Z,23.93
2016-05-11T06:47:47.680Z,23.98
2016-05-11T06:48:47.713Z,23.99
2016-05-11T06:49:47.794Z,23.95
2016-05-11T06:50:48.016Z,23.98
2016-05-11T06:51:48.065Z,24.01
2016-05-11T06:52:47.958Z,24.02
2016-05-11T06:53:48.149Z,23.93
2016-05-11T06:54:48.229Z,23.98
2016-05-11T06:55:48.279Z,23.95
2016-05-11T06:56:48.157Z,23.96
2016-05-11T06:57:48.221Z,24.02
2016-05-11T06:58:48.427Z,23.99
2016-05-11T06:59:48.477Z,23.99
2016-05-11T07:00:48.637Z,23.91
2016-05-11T07:01:48.593Z,23.96
2016-05-11T07:02:48.656Z,23.93
2016-05-11T07:03:48.707Z,24.01
2016-05-11T07:04:48.757Z,23.96
2016-05-11T07:05:48.821Z,24.02
2016-05-11T07:06:48.887Z,23.99
2016-05-11T07:07:48.764Z,23.98
2016-05-11T07:08:48.986Z,23.99
2016-05-11T07:09:49.051Z,24.03
2016-05-11T07:10:49.084Z,23.95
2016-05-11T07:11:49.134Z,23.99
2016-05-11T07:12:49.199Z,23.98
2016-05-11T07:13:49.234Z,24.02
2016-05-11T07:14:49.174Z,24.06
2016-05-11T07:15:49.317Z,24.03
2016-05-11T07:16:49.413Z,23.99
2016-05-11T07:17:49.478Z,24.1
2016-05-11T07:18:49.528Z,24.03
2016-05-11T07:19:49.562Z,24.13
2016-05-11T07:20:49.627Z,24.11
2016-05-11T07:21:49.661Z,24.1
2016-05-11T07:22:49.741Z,24.11
2016-05-11T07:23:49.791Z,24.11
2016-05-11T07:24:49.701Z,24.16
2016-05-11T07:25:49.765Z,24.13
2016-05-11T07:26:49.972Z,24.14
2016-05-11T07:27:50.006Z,24.26
2016-05-11T07:28:50.071Z,24.17
2016-05-11T07:29:50.135Z,24.28
2016-05-11T07:30:49.873Z,24.14
2016-05-11T07:31:50.235Z,24.17
2016-05-11T07:32:50.300Z,24.24
2016-05-11T07:33:50.350Z,24.14
2016-05-11T07:34:50.399Z,24.2
2016-05-11T07:35:50.309Z,24.16
2016-05-11T07:36:50.498Z,24.17
2016-05-11T07:37:50.548Z,24.16
2016-05-11T07:38:50.629Z,24.21
2016-05-11T07:39:50.663Z,24.18
2016-05-11T07:40:50.587Z,24.23
2016-05-11T07:41:50.622Z,24.17
2016-05-11T07:42:50.843Z,24.16
2016-05-11T07:43:50.908Z,24.33
2016-05-11T07:44:50.942Z,24.32
2016-05-11T07:45:51.070Z,24.29
2016-05-11T07:46:51.057Z,24.33
2016-05-11T07:47:51.138Z,24.26
2016-05-11T07:48:51.141Z,24.32
2016-05-11T07:49:51.096Z,24.28
2016-05-11T07:50:51.114Z,24.28
2016-05-11T07:51:51.319Z,24.32
2016-05-11T07:52:51.385Z,24.29
2016-05-11T07:53:51.451Z,24.33
2016-05-11T07:54:51.500Z,24.32
2016-05-11T07:55:51.378Z,24.39
2016-05-11T07:56:51.599Z,24.33
2016-05-11T07:57:51.507Z,24.35
2016-05-11T07:58:51.699Z,24.38
2016-05-11T07:59:51.764Z,24.36
2016-05-11T08:00:51.985Z,24.36
2016-05-11T08:01:51.863Z,24.36
2016-05-11T08:02:51.771Z,24.4
2016-05-11T08:03:51.993Z,24.39
2016-05-11T08:04:52.027Z,24.3
2016-05-11T08:05:52.093Z,24.43
2016-05-11T08:06:52.173Z,24.45
2016-05-11T08:07:52.207Z,24.36
2016-05-11T08:08:52.256Z,24.39
2016-05-11T08:09:52.306Z,24.43
2016-05-11T08:10:52.387Z,24.38
2016-05-11T08:11:52.421Z,24.5
2016-05-11T08:12:52.470Z,24.39
2016-05-11T08:13:52.536Z,24.39
2016-05-11T08:14:52.586Z,24.43
2016-05-11T08:15:52.931Z,24.43
2016-05-11T08:16:52.731Z,24.45
2016-05-11T08:17:52.765Z,24.43
2016-05-11T08:18:52.814Z,24.54
2016-05-11T08:19:52.849Z,24.48
2016-05-11T08:20:52.930Z,24.45
2016-05-11T08:21:52.822Z,24.48
2016-05-11T08:22:53.013Z,24.45
2016-05-11T08:23:53.078Z,24.5
2016-05-11T08:24:53.128Z,24.48
2016-05-11T08:25:53.177Z,24.45
2016-05-11T08:26:53.086Z,24.5
2016-05-11T08:27:53.152Z,24.42
2016-05-11T08:28:53.357Z,24.48
2016-05-11T08:29:53.407Z,24.48
2016-05-11T08:30:54.160Z,24.53
2016-05-11T08:31:53.537Z,24.53
2016-05-11T08:32:53.571Z,24.48
2016-05-11T08:33:53.605Z,24.4
2016-05-11T08:34:53.685Z,24.47
2016-05-11T08:35:53.751Z,24.53
2016-05-11T08:36:53.801Z,24.55
2016-05-11T08:37:53.834Z,24.48
2016-05-11T08:38:53.915Z,24.51
2016-05-11T08:39:53.965Z,24.57
2016-05-11T08:40:53.859Z,24.55
2016-05-11T08:41:53.923Z,24.55
2016-05-11T08:42:54.004Z,24.57
2016-05-11T08:43:54.179Z,24.55
2016-05-11T08:44:54.244Z,24.55
2016-05-11T08:45:54.294Z,24.54
2016-05-11T08:46:54.359Z,24.58
2016-05-11T08:47:54.408Z,24.54
2016-05-11T08:48:54.443Z,24.58
2016-05-11T08:49:54.508Z,24.6
2016-05-11T08:50:54.557Z,24.6
2016-05-11T08:51:54.606Z,24.61
2016-05-11T08:52:54.500Z,24.66
2016-05-11T08:53:54.736Z,24.65
2016-05-11T08:54:54.630Z,24.65
2016-05-11T08:55:54.821Z,24.6
2016-05-11T08:56:54.902Z,24.69
2016-05-11T08:57:54.951Z,24.65
2016-05-11T08:58:55.016Z,24.57
2016-05-11T08:59:54.910Z,24.69
2016-05-11T09:00:55.365Z,24.6
2016-05-11T09:01:55.180Z,24.57
2016-05-11T09:02:55.230Z,24.66
2016-05-11T09:03:55.124Z,24.63
2016-05-11T09:04:55.188Z,24.61
2016-05-11T09:05:55.393Z,24.69
2016-05-11T09:06:55.444Z,24.65
2016-05-11T09:07:55.524Z,24.73
2016-05-11T09:08:55.542Z,24.69
2016-05-11T09:09:55.609Z,24.69
2016-05-11T09:10:55.657Z,24.68
2016-05-11T09:11:55.567Z,24.68
2016-05-11T09:12:55.788Z,24.66
2016-05-11T09:13:55.837Z,24.69
2016-05-11T09:14:55.903Z,24.68
2016-05-11T09:16:14.624Z,24.74
2016-05-11T09:16:55.767Z,24.69
2016-05-11T09:17:56.051Z,24.61
2016-05-11T09:18:55.960Z,24.66
2016-05-11T09:19:56.167Z,24.63
2016-05-11T09:20:56.216Z,24.66
2016-05-11T09:21:56.266Z,24.65
2016-05-11T09:22:56.331Z,24.66
2016-05-11T09:23:56.224Z,24.65
2016-05-11T09:24:56.445Z,24.65
2016-05-11T09:25:56.495Z,24.65
2016-05-11T09:26:56.560Z,24.65
2016-05-11T09:27:56.453Z,24.69
2016-05-11T09:28:56.644Z,24.7
2016-05-11T09:29:56.552Z,24.76
2016-05-11T09:30:56.790Z,24.65
2016-05-11T09:31:56.824Z,24.65
2016-05-11T09:32:56.716Z,24.68
2016-05-11T09:33:56.782Z,24.77
2016-05-11T09:34:56.988Z,24.73
2016-05-11T09:35:57.053Z,24.69
2016-05-11T09:36:57.102Z,24.74
2016-05-11T09:37:57.167Z,24.74
2016-05-11T09:38:57.218Z,24.73
2016-05-11T09:39:57.268Z,24.81
2016-05-11T09:40:57.332Z,24.76
2016-05-11T09:41:57.382Z,24.8
2016-05-11T09:42:57.415Z,24.76
2016-05-11T09:43:57.496Z,24.77
2016-05-11T09:44:57.545Z,24.73
2016-05-11T09:45:57.595Z,24.8
2016-05-11T09:46:57.645Z,24.81
2016-05-11T09:47:57.726Z,24.81
2016-05-11T09:48:57.619Z,24.8
2016-05-11T09:49:57.809Z,24.77
2016-05-11T09:50:57.875Z,24.88
2016-05-11T09:51:57.940Z,24.78
2016-05-11T09:52:57.817Z,24.78
2016-05-11T09:53:57.883Z,24.85
2016-05-11T09:54:58.104Z,24.78
2016-05-11T09:55:58.138Z,24.78
2016-05-11T09:56:58.203Z,24.78
2016-05-11T09:57:58.269Z,24.77
2016-05-11T09:58:58.161Z,24.78
2016-05-11T09:59:58.352Z,24.85
2016-05-11T10:00:58.401Z,24.8
2016-05-11T10:01:58.498Z,24.78
2016-05-11T10:02:58.547Z,24.84
2016-05-11T10:03:58.581Z,24.78
2016-05-11T10:04:58.663Z,24.86
2016-05-11T10:05:58.712Z,24.8
2016-05-11T10:06:58.746Z,24.8
2016-05-11T10:07:58.811Z,24.86
2016-05-11T10:08:58.876Z,24.84
2016-05-11T10:09:58.754Z,24.8
2016-05-11T10:10:58.960Z,24.91
2016-05-11T10:11:59.040Z,24.84
2016-05-11T10:12:59.090Z,24.84
2016-05-11T10:13:58.999Z,24.89
2016-05-11T10:14:59.189Z,24.89
2016-05-11T10:15:59.442Z,24.81
2016-05-11T10:16:59.304Z,24.88
2016-05-11T10:17:59.353Z,24.81
2016-05-11T10:18:59.420Z,24.89
2016-05-11T10:19:59.484Z,24.8
2016-05-11T10:20:59.534Z,24.86
2016-05-11T10:21:59.583Z,24.85
2016-05-11T10:22:59.647Z,24.81
2016-05-11T10:23:59.698Z,24.86
2016-05-11T10:24:59.778Z,24.84
2016-05-11T10:25:59.828Z,24.84
2016-05-11T10:26:59.847Z,24.8
2016-05-11T10:27:59.771Z,24.81
2016-05-11T10:28:59.821Z,24.85
2016-05-11T10:30:00.027Z,24.85
2016-05-11T10:30:59.951Z,24.84
2016-05-11T10:32:52.626Z,24.88
2016-05-11T10:33:05.410Z,24.89
2016-05-11T10:34:05.288Z,24.86
2016-05-11T10:35:05.368Z,24.85
2016-05-11T10:36:05.559Z,24.89
2016-05-11T10:37:05.607Z,24.86
2016-05-11T10:38:05.674Z,24.81
2016-05-11T10:39:05.723Z,24.86
2016-05-11T10:40:05.788Z,24.89
2016-05-11T10:41:05.885Z,24.86
2016-05-11T10:42:05.747Z,24.86
2016-05-11T10:43:05.952Z,24.88
2016-05-11T10:44:06.048Z,24.85
2016-05-11T10:45:06.067Z,24.89
2016-05-11T10:46:06.117Z,24.84
2016-05-11T10:47:06.165Z,24.88
2016-05-11T10:48:06.231Z,24.86
2016-05-11T10:49:08.218Z,24.85
2016-05-11T10:50:06.331Z,24.81
2016-05-11T10:51:06.380Z,24.85
2016-05-11T10:52:06.304Z,24.84
2016-05-11T10:53:06.495Z,24.89
2016-05-11T10:54:07.670Z,24.89
2016-05-11T10:55:06.469Z,24.85
2016-05-11T10:56:06.675Z,24.81
2016-05-11T10:57:06.583Z,24.81
2016-05-11T10:58:06.633Z,24.8
2016-05-11T10:59:06.839Z,24.91
2016-05-11T11:00:06.889Z,24.86
2016-05-11T11:01:07.328Z,24.8
2016-05-11T11:02:07.003Z,24.88
2016-05-11T11:03:07.069Z,24.84
2016-05-11T11:04:07.119Z,24.77
2016-05-11T11:05:07.152Z,24.81
2016-05-11T11:06:07.233Z,24.81
2016-05-11T11:07:07.127Z,24.86
2016-05-11T11:08:07.347Z,24.81
2016-05-11T11:09:08.429Z,24.91
2016-05-11T11:10:07.446Z,24.85
2016-05-11T11:11:07.528Z,24.85
2016-05-11T11:12:07.562Z,24.86
2016-05-11T11:13:07.454Z,24.77
2016-05-11T11:14:08.021Z,24.77
2016-05-11T11:15:07.570Z,24.84
2016-05-11T11:16:08.197Z,24.86
2016-05-11T11:17:07.825Z,24.89
2016-05-11T11:18:07.875Z,24.81
2016-05-11T11:19:07.987Z,24.81
2016-05-11T11:20:08.004Z,24.84
2016-05-11T11:21:07.743Z,24.88
2016-05-11T11:22:08.120Z,24.74
2016-05-11T11:23:08.170Z,24.85
2016-05-11T11:24:08.219Z,24.85
2016-05-11T11:25:08.128Z,24.84
2016-05-11T11:26:08.178Z,24.85
2016-05-11T11:27:08.211Z,24.86
2016-05-11T11:28:08.433Z,24.8
2016-05-11T11:29:08.498Z,24.85
2016-05-11T11:30:08.547Z,24.76
2016-05-11T11:31:08.300Z,24.86
2016-05-11T11:32:08.662Z,24.85
2016-05-11T11:33:08.728Z,24.8
2016-05-11T11:34:09.542Z,24.8
2016-05-11T11:35:08.842Z,24.85
2016-05-11T11:36:08.891Z,24.78
2016-05-11T11:37:08.925Z,24.85
2016-05-11T11:38:08.991Z,24.84
2016-05-11T11:39:09.055Z,24.78
2016-05-11T11:40:09.090Z,24.8
2016-05-11T11:41:09.140Z,24.84
2016-05-11T11:42:09.064Z,24.8
2016-05-11T11:43:09.254Z,24.78
2016-05-11T11:44:09.335Z,24.76
2016-05-11T11:45:09.369Z,24.84
2016-05-11T11:46:09.841Z,24.85
2016-05-11T11:47:09.499Z,24.85
2016-05-11T11:48:09.534Z,24.86
2016-05-11T11:49:09.443Z,24.86
2016-05-11T11:50:09.664Z,24.84
2016-05-11T11:51:09.541Z,24.8
2016-05-11T11:52:09.763Z,24.86
2016-05-11T11:53:09.812Z,24.8
2016-05-11T11:54:09.893Z,24.78
2016-05-11T11:55:09.927Z,24.85
2016-05-11T11:56:10.009Z,24.85
2016-05-11T11:57:10.042Z,24.8
2016-05-11T11:58:09.950Z,24.8
2016-05-11T11:59:10.142Z,24.77
2016-05-11T12:00:10.348Z,24.78
2016-05-11T12:01:10.444Z,24.78
2016-05-11T12:02:10.117Z,24.78
2016-05-11T12:03:10.370Z,24.78
2016-05-11T12:04:10.811Z,24.85
2016-05-11T12:05:10.469Z,24.74
2016-05-11T12:06:10.535Z,24.85
2016-05-11T12:07:10.600Z,24.78
2016-05-11T12:08:10.650Z,24.89
2016-05-11T12:09:10.730Z,24.85
2016-05-11T12:10:10.764Z,24.77
2016-05-11T12:11:10.814Z,24.78
2016-05-11T12:12:10.724Z,24.78
2016-05-11T12:13:10.944Z,24.77
2016-05-11T12:14:10.807Z,24.81
2016-05-11T12:15:11.027Z,24.81
2016-05-11T12:16:11.155Z,24.77
2016-05-11T12:17:11.127Z,24.8
2016-05-11T12:18:11.192Z,24.78
2016-05-11T12:19:11.257Z,24.84
2016-05-11T12:20:11.307Z,24.81
2016-05-11T12:21:11.357Z,24.76
2016-05-11T12:22:11.421Z,24.78
2016-05-11T12:23:11.331Z,24.8
2016-05-11T12:24:11.521Z,24.84
2016-05-11T12:25:11.586Z,24.84
2016-05-11T12:26:11.651Z,24.78
2016-05-11T12:27:11.732Z,24.77
2016-05-11T12:28:11.767Z,24.77
2016-05-11T12:29:11.815Z,24.8
2016-05-11T12:30:11.897Z,24.85
2016-05-11T12:31:12.070Z,24.78
2016-05-11T12:32:11.808Z,24.76
2016-05-11T12:33:12.030Z,24.8
2016-05-11T12:34:12.078Z,24.77
2016-05-11T12:35:12.144Z,24.85
2016-05-11T12:36:12.022Z,24.84
2016-05-11T12:37:12.253Z,24.8
2016-05-11T12:38:12.397Z,24.77
2016-05-11T12:39:12.322Z,24.86
2016-05-11T12:40:12.591Z,24.85
2016-05-11T12:41:12.687Z,24.74
2016-05-11T12:42:12.783Z,24.86
2016-05-11T12:43:12.834Z,24.84
2016-05-11T12:44:12.931Z,24.8
2016-05-11T12:45:12.842Z,24.88
2016-05-11T12:46:13.331Z,24.84
2016-05-11T12:47:13.125Z,24.81
2016-05-11T12:48:13.228Z,24.84
2016-05-11T12:49:13.252Z,24.88
2016-05-11T12:50:13.308Z,24.78
2016-05-11T12:51:13.380Z,24.86
2016-05-11T12:52:13.448Z,24.85
2016-05-11T12:53:13.500Z,24.85
2016-05-11T12:54:13.535Z,24.78
2016-05-11T12:55:13.603Z,24.81
2016-05-11T12:56:13.655Z,24.81